sensor_id;sensor_type;location;lat;lon;timestamp;temperature;humidity
46091;DHT22;31826;53.572;10.170;2023-01-20T00:00:26;0.30;99.90
46091;DHT22;31826;53.572;10.170;2023-01-20T00:02:51;0.30;99.90
46091;DHT22;31826;53.572;10.170;2023-01-20T00:05:17;0.50;99.90
46091;DHT22;31826;53.572;10.170;2023-01-20T00:07:43;0.40;99.90
46091;DHT22;31826;53.572;10.170;2023-01-20T00:10:09;0.40;99.90
46091;DHT22;31826;53.572;10.170;2023-01-20T00:12:35;0.50;99.90
46091;DHT22;31826;53.572;10.170;2023-01-20T00:15:01;0.60;99.90
46091;DHT22;31826;53.572;10.170;2023-01-20T00:17:27;0.60;99.90
46091;DHT22;31826;53.572;10.170;2023-01-20T00:19:52;0.60;99.90
46091;DHT22;31826;53.572;10.170;2023-01-20T00:22:19;0.60;99.90
46091;DHT22;31826;53.572;10.170;2023-01-20T00:24:44;0.60;99.90
46091;DHT22;31826;53.572;10.170;2023-01-20T00:27:10;0.70;99.90
46091;DHT22;31826;53.572;10.170;2023-01-20T00:29:36;0.60;99.90
46091;DHT22;31826;53.572;10.170;2023-01-20T00:32:01;0.60;99.90
46091;DHT22;31826;53.572;10.170;2023-01-20T00:34:27;0.60;99.90
46091;DHT22;31826;53.572;10.170;2023-01-20T00:36:53;0.70;99.90
46091;DHT22;31826;53.572;10.170;2023-01-20T00:39:19;0.60;99.90
46091;DHT22;31826;53.572;10.170;2023-01-20T00:41:44;0.70;99.90
46091;DHT22;31826;53.572;10.170;2023-01-20T00:44:10;0.70;99.90
46091;DHT22;31826;53.572;10.170;2023-01-20T00:46:36;0.70;99.90
46091;DHT22;31826;53.572;10.170;2023-01-20T00:49:01;0.60;99.90
46091;DHT22;31826;53.572;10.170;2023-01-20T00:51:27;0.60;99.90
46091;DHT22;31826;53.572;10.170;2023-01-20T00:53:53;0.60;99.90
46091;DHT22;31826;53.572;10.170;2023-01-20T00:56:18;0.60;99.90
46091;DHT22;31826;53.572;10.170;2023-01-20T00:58:44;0.50;99.90
46091;DHT22;31826;53.572;10.170;2023-01-20T01:01:10;0.40;99.90
46091;DHT22;31826;53.572;10.170;2023-01-20T01:03:36;0.10;99.90
46091;DHT22;31826;53.572;10.170;2023-01-20T01:06:08;0.00;99.90
46091;DHT22;31826;53.572;10.170;2023-01-20T01:08:34;-0.20;99.90
46091;DHT22;31826;53.572;10.170;2023-01-20T01:11:00;-0.30;99.90
46091;DHT22;31826;53.572;10.170;2023-01-20T01:13:25;-0.30;99.90
46091;DHT22;31826;53.572;10.170;2023-01-20T01:15:51;-0.40;99.90
46091;DHT22;31826;53.572;10.170;2023-01-20T01:18:17;-0.40;99.90
46091;DHT22;31826;53.572;10.170;2023-01-20T01:20:43;-0.40;99.90
46091;DHT22;31826;53.572;10.170;2023-01-20T01:23:10;-0.40;99.90
46091;DHT22;31826;53.572;10.170;2023-01-20T01:25:36;-0.40;99.90
46091;DHT22;31826;53.572;10.170;2023-01-20T01:28:02;-0.50;99.90
46091;DHT22;31826;53.572;10.170;2023-01-20T01:30:28;-0.50;99.90
46091;DHT22;31826;53.572;10.170;2023-01-20T01:32:53;-0.50;99.90
46091;DHT22;31826;53.572;10.170;2023-01-20T01:35:19;-0.50;99.90
46091;DHT22;31826;53.572;10.170;2023-01-20T01:37:45;-0.50;99.90
46091;DHT22;31826;53.572;10.170;2023-01-20T01:40:11;-0.50;99.90
46091;DHT22;31826;53.572;10.170;2023-01-20T01:42:37;-0.60;99.90
46091;DHT22;31826;53.572;10.170;2023-01-20T01:47:50;-0.60;99.90
46091;DHT22;31826;53.572;10.170;2023-01-20T01:50:25;-0.60;99.90
46091;DHT22;31826;53.572;10.170;2023-01-20T01:52:53;-0.60;99.90
46091;DHT22;31826;53.572;10.170;2023-01-20T01:55:22;-0.60;99.90
46091;DHT22;31826;53.572;10.170;2023-01-20T01:57:48;-0.60;99.90
46091;DHT22;31826;53.572;10.170;2023-01-20T02:00:15;-0.60;99.90
46091;DHT22;31826;53.572;10.170;2023-01-20T02:02:42;-0.60;99.90
46091;DHT22;31826;53.572;10.170;2023-01-20T02:05:13;-0.60;99.90
46091;DHT22;31826;53.572;10.170;2023-01-20T02:07:42;-0.60;99.90
46091;DHT22;31826;53.572;10.170;2023-01-20T02:10:09;-0.60;99.90
46091;DHT22;31826;53.572;10.170;2023-01-20T02:12:35;-0.60;99.90
46091;DHT22;31826;53.572;10.170;2023-01-20T02:15:02;-0.60;99.90
46091;DHT22;31826;53.572;10.170;2023-01-20T02:20:32;-0.60;99.90
46091;DHT22;31826;53.572;10.170;2023-01-20T02:26:06;-0.60;99.90
46091;DHT22;31826;53.572;10.170;2023-01-20T02:34:28;-0.60;99.90
46091;DHT22;31826;53.572;10.170;2023-01-20T02:37:17;-0.50;99.90
46091;DHT22;31826;53.572;10.170;2023-01-20T02:39:55;-0.50;99.90
46091;DHT22;31826;53.572;10.170;2023-01-20T02:42:26;-0.60;99.90
46091;DHT22;31826;53.572;10.170;2023-01-20T02:45:16;-0.50;99.90
46091;DHT22;31826;53.572;10.170;2023-01-20T02:47:52;-0.50;99.90
46091;DHT22;31826;53.572;10.170;2023-01-20T02:50:21;-0.50;99.90
46091;DHT22;31826;53.572;10.170;2023-01-20T02:52:53;-0.50;99.90
46091;DHT22;31826;53.572;10.170;2023-01-20T02:58:00;-0.50;99.90
46091;DHT22;31826;53.572;10.170;2023-01-20T03:00:32;-0.50;99.90
46091;DHT22;31826;53.572;10.170;2023-01-20T03:03:01;-0.50;99.90
46091;DHT22;31826;53.572;10.170;2023-01-20T03:05:32;-0.50;99.90
46091;DHT22;31826;53.572;10.170;2023-01-20T03:08:03;-0.50;99.90
46091;DHT22;31826;53.572;10.170;2023-01-20T03:10:32;-0.50;99.90
46091;DHT22;31826;53.572;10.170;2023-01-20T03:13:07;-0.40;99.90
46091;DHT22;31826;53.572;10.170;2023-01-20T03:18:21;-0.60;99.90
46091;DHT22;31826;53.572;10.170;2023-01-20T03:20:47;-0.50;99.90
46091;DHT22;31826;53.572;10.170;2023-01-20T03:23:13;-0.40;99.90
46091;DHT22;31826;53.572;10.170;2023-01-20T03:25:39;-0.40;99.90
46091;DHT22;31826;53.572;10.170;2023-01-20T03:28:05;-0.50;99.90
46091;DHT22;31826;53.572;10.170;2023-01-20T03:30:31;-0.40;99.90
46091;DHT22;31826;53.572;10.170;2023-01-20T03:32:58;-0.40;99.90
46091;DHT22;31826;53.572;10.170;2023-01-20T03:35:24;-0.40;99.90
46091;DHT22;31826;53.572;10.170;2023-01-20T03:37:50;-0.30;99.90
46091;DHT22;31826;53.572;10.170;2023-01-20T03:40:16;-0.30;99.90
46091;DHT22;31826;53.572;10.170;2023-01-20T03:42:53;-0.30;99.90
46091;DHT22;31826;53.572;10.170;2023-01-20T03:48:39;-0.30;99.90
46091;DHT22;31826;53.572;10.170;2023-01-20T03:50:52;-0.30;99.90
46091;DHT22;31826;53.572;10.170;2023-01-20T03:53:35;-0.30;99.90
46091;DHT22;31826;53.572;10.170;2023-01-20T03:56:32;-0.30;99.90
46091;DHT22;31826;53.572;10.170;2023-01-20T03:59:00;-0.20;99.90
46091;DHT22;31826;53.572;10.170;2023-01-20T04:01:45;-0.30;99.90
46091;DHT22;31826;53.572;10.170;2023-01-20T04:04:15;-0.20;99.90
46091;DHT22;31826;53.572;10.170;2023-01-20T04:06:42;-0.30;99.90
46091;DHT22;31826;53.572;10.170;2023-01-20T04:09:12;-0.20;99.90
46091;DHT22;31826;53.572;10.170;2023-01-20T04:11:40;-0.20;99.90
46091;DHT22;31826;53.572;10.170;2023-01-20T04:14:08;-0.20;99.90
46091;DHT22;31826;53.572;10.170;2023-01-20T04:16:34;-0.10;99.90
46091;DHT22;31826;53.572;10.170;2023-01-20T04:19:00;-0.10;99.90
46091;DHT22;31826;53.572;10.170;2023-01-20T04:26:28;0.00;99.90
46091;DHT22;31826;53.572;10.170;2023-01-20T04:28:54;0.00;99.90
46091;DHT22;31826;53.572;10.170;2023-01-20T04:31:20;0.00;99.90
46091;DHT22;31826;53.572;10.170;2023-01-20T04:33:45;0.00;99.90
46091;DHT22;31826;53.572;10.170;2023-01-20T04:36:11;0.00;99.90
46091;DHT22;31826;53.572;10.170;2023-01-20T04:38:37;-0.10;99.90
46091;DHT22;31826;53.572;10.170;2023-01-20T04:41:03;-0.10;99.90
46091;DHT22;31826;53.572;10.170;2023-01-20T04:43:28;-0.10;99.90
46091;DHT22;31826;53.572;10.170;2023-01-20T04:45:54;-0.10;99.90
46091;DHT22;31826;53.572;10.170;2023-01-20T04:48:20;-0.20;99.90
46091;DHT22;31826;53.572;10.170;2023-01-20T04:50:45;-0.10;99.90
46091;DHT22;31826;53.572;10.170;2023-01-20T04:53:12;-0.10;99.90
46091;DHT22;31826;53.572;10.170;2023-01-20T04:55:41;-0.10;99.90
46091;DHT22;31826;53.572;10.170;2023-01-20T04:58:09;-0.10;99.90
46091;DHT22;31826;53.572;10.170;2023-01-20T05:00:34;-0.10;99.90
46091;DHT22;31826;53.572;10.170;2023-01-20T05:03:00;-0.10;99.90
46091;DHT22;31826;53.572;10.170;2023-01-20T05:05:27;-0.10;99.90
46091;DHT22;31826;53.572;10.170;2023-01-20T05:07:53;-0.10;99.90
46091;DHT22;31826;53.572;10.170;2023-01-20T05:10:19;-0.10;99.90
46091;DHT22;31826;53.572;10.170;2023-01-20T05:12:45;-0.10;99.90
46091;DHT22;31826;53.572;10.170;2023-01-20T05:15:11;-0.10;99.90
46091;DHT22;31826;53.572;10.170;2023-01-20T05:17:37;-0.10;99.90
46091;DHT22;31826;53.572;10.170;2023-01-20T05:20:03;-0.20;99.90
46091;DHT22;31826;53.572;10.170;2023-01-20T05:22:29;-0.20;99.90
46091;DHT22;31826;53.572;10.170;2023-01-20T05:24:58;-0.10;99.90
46091;DHT22;31826;53.572;10.170;2023-01-20T05:27:24;0.00;99.90
46091;DHT22;31826;53.572;10.170;2023-01-20T05:29:49;0.00;99.90
46091;DHT22;31826;53.572;10.170;2023-01-20T05:32:15;0.00;99.90
46091;DHT22;31826;53.572;10.170;2023-01-20T05:34:41;0.10;99.90
46091;DHT22;31826;53.572;10.170;2023-01-20T05:37:08;0.10;99.90
46091;DHT22;31826;53.572;10.170;2023-01-20T05:39:33;0.00;99.90
46091;DHT22;31826;53.572;10.170;2023-01-20T05:42:00;0.00;99.90
46091;DHT22;31826;53.572;10.170;2023-01-20T05:44:26;0.10;99.90
46091;DHT22;31826;53.572;10.170;2023-01-20T05:46:52;0.10;99.90
46091;DHT22;31826;53.572;10.170;2023-01-20T05:49:17;0.10;99.90
46091;DHT22;31826;53.572;10.170;2023-01-20T05:51:43;0.10;99.90
46091;DHT22;31826;53.572;10.170;2023-01-20T05:54:09;0.10;99.90
46091;DHT22;31826;53.572;10.170;2023-01-20T05:56:34;0.20;99.90
46091;DHT22;31826;53.572;10.170;2023-01-20T05:59:00;0.20;99.90
46091;DHT22;31826;53.572;10.170;2023-01-20T06:01:26;0.20;99.90
46091;DHT22;31826;53.572;10.170;2023-01-20T06:03:52;0.20;99.90
46091;DHT22;31826;53.572;10.170;2023-01-20T06:06:18;0.20;99.90
46091;DHT22;31826;53.572;10.170;2023-01-20T06:08:44;0.20;99.90
46091;DHT22;31826;53.572;10.170;2023-01-20T06:11:11;0.20;99.90
46091;DHT22;31826;53.572;10.170;2023-01-20T06:13:37;0.20;99.90
46091;DHT22;31826;53.572;10.170;2023-01-20T06:16:04;0.20;99.90
46091;DHT22;31826;53.572;10.170;2023-01-20T06:18:32;0.20;99.90
46091;DHT22;31826;53.572;10.170;2023-01-20T06:20:58;0.20;99.90
46091;DHT22;31826;53.572;10.170;2023-01-20T06:23:24;0.20;99.90
46091;DHT22;31826;53.572;10.170;2023-01-20T06:26:02;0.20;99.90
46091;DHT22;31826;53.572;10.170;2023-01-20T06:28:28;0.30;99.90
46091;DHT22;31826;53.572;10.170;2023-01-20T06:31:01;0.30;99.90
46091;DHT22;31826;53.572;10.170;2023-01-20T06:33:28;0.30;99.90
46091;DHT22;31826;53.572;10.170;2023-01-20T06:35:55;0.30;99.90
46091;DHT22;31826;53.572;10.170;2023-01-20T06:38:27;0.30;99.90
46091;DHT22;31826;53.572;10.170;2023-01-20T06:41:00;0.30;99.90
46091;DHT22;31826;53.572;10.170;2023-01-20T06:43:34;0.30;99.90
46091;DHT22;31826;53.572;10.170;2023-01-20T06:46:01;0.30;99.90
46091;DHT22;31826;53.572;10.170;2023-01-20T06:48:27;0.30;99.90
46091;DHT22;31826;53.572;10.170;2023-01-20T06:50:53;0.30;99.90
46091;DHT22;31826;53.572;10.170;2023-01-20T06:53:19;0.20;99.90
46091;DHT22;31826;53.572;10.170;2023-01-20T06:55:53;0.30;99.90
46091;DHT22;31826;53.572;10.170;2023-01-20T06:58:20;0.20;99.90
46091;DHT22;31826;53.572;10.170;2023-01-20T07:00:46;0.30;99.90
46091;DHT22;31826;53.572;10.170;2023-01-20T07:03:12;0.30;99.90
46091;DHT22;31826;53.572;10.170;2023-01-20T07:05:37;0.30;99.90
46091;DHT22;31826;53.572;10.170;2023-01-20T07:08:03;0.30;99.90
46091;DHT22;31826;53.572;10.170;2023-01-20T07:10:29;0.30;99.90
46091;DHT22;31826;53.572;10.170;2023-01-20T07:12:54;0.30;99.90
46091;DHT22;31826;53.572;10.170;2023-01-20T07:15:20;0.30;99.90
46091;DHT22;31826;53.572;10.170;2023-01-20T07:17:46;0.40;99.90
46091;DHT22;31826;53.572;10.170;2023-01-20T07:20:12;0.40;99.90
46091;DHT22;31826;53.572;10.170;2023-01-20T07:22:37;0.40;99.90
46091;DHT22;31826;53.572;10.170;2023-01-20T07:25:03;0.40;99.90
46091;DHT22;31826;53.572;10.170;2023-01-20T07:27:29;0.40;99.90
46091;DHT22;31826;53.572;10.170;2023-01-20T07:29:54;0.40;99.90
46091;DHT22;31826;53.572;10.170;2023-01-20T07:32:20;0.30;99.90
46091;DHT22;31826;53.572;10.170;2023-01-20T07:34:46;0.40;99.90
46091;DHT22;31826;53.572;10.170;2023-01-20T07:37:12;0.40;99.90
46091;DHT22;31826;53.572;10.170;2023-01-20T07:39:37;0.40;99.90
46091;DHT22;31826;53.572;10.170;2023-01-20T07:42:03;0.40;99.90
46091;DHT22;31826;53.572;10.170;2023-01-20T07:44:29;0.30;99.90
46091;DHT22;31826;53.572;10.170;2023-01-20T07:46:54;0.40;99.90
46091;DHT22;31826;53.572;10.170;2023-01-20T07:49:20;0.40;99.90
46091;DHT22;31826;53.572;10.170;2023-01-20T07:51:45;0.40;99.90
46091;DHT22;31826;53.572;10.170;2023-01-20T07:54:11;0.40;99.90
46091;DHT22;31826;53.572;10.170;2023-01-20T07:56:37;0.50;99.90
46091;DHT22;31826;53.572;10.170;2023-01-20T07:59:03;0.50;99.90
46091;DHT22;31826;53.572;10.170;2023-01-20T08:01:30;0.40;99.90
46091;DHT22;31826;53.572;10.170;2023-01-20T08:03:57;0.40;99.90
46091;DHT22;31826;53.572;10.170;2023-01-20T08:06:25;0.40;99.90
46091;DHT22;31826;53.572;10.170;2023-01-20T08:08:52;0.50;99.90
46091;DHT22;31826;53.572;10.170;2023-01-20T08:11:20;0.40;99.90
46091;DHT22;31826;53.572;10.170;2023-01-20T08:13:46;0.40;99.90
46091;DHT22;31826;53.572;10.170;2023-01-20T08:16:14;0.50;99.90
46091;DHT22;31826;53.572;10.170;2023-01-20T08:18:41;0.50;99.90
46091;DHT22;31826;53.572;10.170;2023-01-20T08:21:14;0.50;99.90
46091;DHT22;31826;53.572;10.170;2023-01-20T08:23:40;0.50;99.90
46091;DHT22;31826;53.572;10.170;2023-01-20T08:26:06;0.50;99.90
46091;DHT22;31826;53.572;10.170;2023-01-20T08:28:34;0.50;99.90
46091;DHT22;31826;53.572;10.170;2023-01-20T08:31:13;0.60;99.90
46091;DHT22;31826;53.572;10.170;2023-01-20T08:33:40;0.60;99.90
46091;DHT22;31826;53.572;10.170;2023-01-20T08:36:08;0.60;99.90
46091;DHT22;31826;53.572;10.170;2023-01-20T08:38:34;0.50;99.90
46091;DHT22;31826;53.572;10.170;2023-01-20T08:41:01;0.60;99.90
46091;DHT22;31826;53.572;10.170;2023-01-20T08:43:26;0.60;99.90
46091;DHT22;31826;53.572;10.170;2023-01-20T08:46:06;0.60;99.90
46091;DHT22;31826;53.572;10.170;2023-01-20T08:48:33;0.60;99.90
46091;DHT22;31826;53.572;10.170;2023-01-20T08:51:01;0.60;99.90
46091;DHT22;31826;53.572;10.170;2023-01-20T08:53:27;0.60;99.90
46091;DHT22;31826;53.572;10.170;2023-01-20T08:55:57;0.60;99.90
46091;DHT22;31826;53.572;10.170;2023-01-20T08:58:23;0.60;99.90
46091;DHT22;31826;53.572;10.170;2023-01-20T09:00:49;0.70;99.90
46091;DHT22;31826;53.572;10.170;2023-01-20T09:03:16;0.70;99.90
46091;DHT22;31826;53.572;10.170;2023-01-20T09:05:41;0.70;99.90
46091;DHT22;31826;53.572;10.170;2023-01-20T09:08:07;0.70;99.90
46091;DHT22;31826;53.572;10.170;2023-01-20T09:10:33;0.70;99.90
46091;DHT22;31826;53.572;10.170;2023-01-20T09:12:59;0.80;99.90
46091;DHT22;31826;53.572;10.170;2023-01-20T09:15:25;0.80;99.90
46091;DHT22;31826;53.572;10.170;2023-01-20T09:17:50;0.90;99.90
46091;DHT22;31826;53.572;10.170;2023-01-20T09:20:16;0.80;99.90
46091;DHT22;31826;53.572;10.170;2023-01-20T09:22:42;0.80;99.90
46091;DHT22;31826;53.572;10.170;2023-01-20T09:25:09;0.90;99.90
46091;DHT22;31826;53.572;10.170;2023-01-20T09:27:35;0.90;99.90
46091;DHT22;31826;53.572;10.170;2023-01-20T09:30:01;0.90;99.90
46091;DHT22;31826;53.572;10.170;2023-01-20T09:32:26;0.90;99.90
46091;DHT22;31826;53.572;10.170;2023-01-20T09:34:52;0.80;99.90
46091;DHT22;31826;53.572;10.170;2023-01-20T09:37:18;1.00;99.90
46091;DHT22;31826;53.572;10.170;2023-01-20T09:40:02;0.90;99.90
46091;DHT22;31826;53.572;10.170;2023-01-20T09:52:12;0.90;99.90
46091;DHT22;31826;53.572;10.170;2023-01-20T09:55:07;0.90;99.90
46091;DHT22;31826;53.572;10.170;2023-01-20T09:57:36;1.00;99.90
46091;DHT22;31826;53.572;10.170;2023-01-20T10:00:10;1.00;99.90
46091;DHT22;31826;53.572;10.170;2023-01-20T10:02:41;1.10;99.90
46091;DHT22;31826;53.572;10.170;2023-01-20T10:05:12;1.10;99.90
46091;DHT22;31826;53.572;10.170;2023-01-20T10:07:43;1.00;99.90
46091;DHT22;31826;53.572;10.170;2023-01-20T10:10:31;1.00;99.90
46091;DHT22;31826;53.572;10.170;2023-01-20T10:13:13;1.00;99.90
46091;DHT22;31826;53.572;10.170;2023-01-20T10:15:49;1.00;99.90
46091;DHT22;31826;53.572;10.170;2023-01-20T10:18:23;0.90;99.90
46091;DHT22;31826;53.572;10.170;2023-01-20T10:24:09;1.00;99.90
46091;DHT22;31826;53.572;10.170;2023-01-20T10:26:50;1.00;99.90
46091;DHT22;31826;53.572;10.170;2023-01-20T10:29:40;1.10;99.90
46091;DHT22;31826;53.572;10.170;2023-01-20T10:33:05;1.10;99.90
46091;DHT22;31826;53.572;10.170;2023-01-20T10:35:26;1.10;99.90
46091;DHT22;31826;53.572;10.170;2023-01-20T10:37:52;1.00;99.90
46091;DHT22;31826;53.572;10.170;2023-01-20T10:43:00;1.10;99.90
46091;DHT22;31826;53.572;10.170;2023-01-20T10:56:55;1.20;99.90
46091;DHT22;31826;53.572;10.170;2023-01-20T10:59:40;1.30;99.90
46091;DHT22;31826;53.572;10.170;2023-01-20T11:02:25;1.50;99.90
46091;DHT22;31826;53.572;10.170;2023-01-20T11:05:01;1.70;99.90
46091;DHT22;31826;53.572;10.170;2023-01-20T11:07:28;2.00;99.90
46091;DHT22;31826;53.572;10.170;2023-01-20T11:09:55;2.20;99.90
46091;DHT22;31826;53.572;10.170;2023-01-20T11:12:24;2.40;99.90
46091;DHT22;31826;53.572;10.170;2023-01-20T11:14:54;2.20;99.90
46091;DHT22;31826;53.572;10.170;2023-01-20T11:17:20;2.40;99.90
46091;DHT22;31826;53.572;10.170;2023-01-20T11:19:50;2.70;99.90
46091;DHT22;31826;53.572;10.170;2023-01-20T11:22:29;3.10;99.90
46091;DHT22;31826;53.572;10.170;2023-01-20T11:24:57;3.50;99.90
46091;DHT22;31826;53.572;10.170;2023-01-20T11:27:27;3.80;99.90
46091;DHT22;31826;53.572;10.170;2023-01-20T11:30:00;3.80;99.90
46091;DHT22;31826;53.572;10.170;2023-01-20T11:32:31;3.90;99.90
46091;DHT22;31826;53.572;10.170;2023-01-20T11:34:58;4.40;99.90
46091;DHT22;31826;53.572;10.170;2023-01-20T11:37:33;4.60;99.90
46091;DHT22;31826;53.572;10.170;2023-01-20T11:40:03;4.40;99.90
46091;DHT22;31826;53.572;10.170;2023-01-20T11:42:43;4.30;99.90
46091;DHT22;31826;53.572;10.170;2023-01-20T11:45:34;4.10;99.90
46091;DHT22;31826;53.572;10.170;2023-01-20T11:50:45;4.30;99.90
46091;DHT22;31826;53.572;10.170;2023-01-20T11:55:52;5.60;99.90
46091;DHT22;31826;53.572;10.170;2023-01-20T11:58:31;5.90;99.90
46091;DHT22;31826;53.572;10.170;2023-01-20T12:01:02;5.80;99.90
46091;DHT22;31826;53.572;10.170;2023-01-20T12:03:49;5.90;99.90
46091;DHT22;31826;53.572;10.170;2023-01-20T12:06:28;6.20;99.90
46091;DHT22;31826;53.572;10.170;2023-01-20T12:09:04;6.70;99.90
46091;DHT22;31826;53.572;10.170;2023-01-20T12:11:38;6.80;99.90
46091;DHT22;31826;53.572;10.170;2023-01-20T12:14:23;7.00;99.90
46091;DHT22;31826;53.572;10.170;2023-01-20T12:20:08;6.00;99.90
46091;DHT22;31826;53.572;10.170;2023-01-20T12:22:52;5.20;99.90
46091;DHT22;31826;53.572;10.170;2023-01-20T12:25:28;4.70;99.90
46091;DHT22;31826;53.572;10.170;2023-01-20T12:33:20;4.10;99.90
46091;DHT22;31826;53.572;10.170;2023-01-20T12:36:22;4.20;99.90
46091;DHT22;31826;53.572;10.170;2023-01-20T12:39:17;4.10;99.90
46091;DHT22;31826;53.572;10.170;2023-01-20T12:51:04;4.30;99.90
46091;DHT22;31826;53.572;10.170;2023-01-20T13:12:40;3.70;99.90
46091;DHT22;31826;53.572;10.170;2023-01-20T13:15:17;3.60;99.90
46091;DHT22;31826;53.572;10.170;2023-01-20T13:20:30;3.50;99.90
46091;DHT22;31826;53.572;10.170;2023-01-20T13:22:59;3.50;99.90
46091;DHT22;31826;53.572;10.170;2023-01-20T13:25:25;3.40;99.90
46091;DHT22;31826;53.572;10.170;2023-01-20T13:27:51;3.50;99.90
46091;DHT22;31826;53.572;10.170;2023-01-20T13:30:44;3.50;99.90
46091;DHT22;31826;53.572;10.170;2023-01-20T13:33:25;3.60;99.90
46091;DHT22;31826;53.572;10.170;2023-01-20T13:35:54;3.40;99.90
46091;DHT22;31826;53.572;10.170;2023-01-20T13:38:23;3.40;99.90
46091;DHT22;31826;53.572;10.170;2023-01-20T13:40:52;3.60;99.90
46091;DHT22;31826;53.572;10.170;2023-01-20T13:48:34;3.70;99.90
46091;DHT22;31826;53.572;10.170;2023-01-20T13:59:49;3.60;99.90
46091;DHT22;31826;53.572;10.170;2023-01-20T14:02:23;3.50;99.90
46091;DHT22;31826;53.572;10.170;2023-01-20T14:04:49;3.50;99.90
46091;DHT22;31826;53.572;10.170;2023-01-20T14:07:22;3.40;99.90
46091;DHT22;31826;53.572;10.170;2023-01-20T14:09:53;3.30;99.90
46091;DHT22;31826;53.572;10.170;2023-01-20T14:12:20;3.30;99.90
46091;DHT22;31826;53.572;10.170;2023-01-20T14:14:46;3.40;99.90
46091;DHT22;31826;53.572;10.170;2023-01-20T14:17:20;3.40;99.90
46091;DHT22;31826;53.572;10.170;2023-01-20T14:19:48;3.30;99.90
46091;DHT22;31826;53.572;10.170;2023-01-20T14:22:32;3.40;99.90
46091;DHT22;31826;53.572;10.170;2023-01-20T14:24:58;3.40;99.90
46091;DHT22;31826;53.572;10.170;2023-01-20T14:27:29;3.40;99.90
46091;DHT22;31826;53.572;10.170;2023-01-20T14:29:58;3.40;99.90
46091;DHT22;31826;53.572;10.170;2023-01-20T14:32:37;3.40;99.90
46091;DHT22;31826;53.572;10.170;2023-01-20T14:35:25;3.40;99.90
46091;DHT22;31826;53.572;10.170;2023-01-20T14:37:53;3.50;99.90
46091;DHT22;31826;53.572;10.170;2023-01-20T14:43:03;3.50;99.90
46091;DHT22;31826;53.572;10.170;2023-01-20T14:45:37;3.60;99.90
46091;DHT22;31826;53.572;10.170;2023-01-20T14:48:06;3.50;99.90
46091;DHT22;31826;53.572;10.170;2023-01-20T14:50:32;3.50;99.90
46091;DHT22;31826;53.572;10.170;2023-01-20T14:52:58;3.50;99.90
46091;DHT22;31826;53.572;10.170;2023-01-20T14:55:35;3.50;99.90
46091;DHT22;31826;53.572;10.170;2023-01-20T14:58:18;3.50;99.90
46091;DHT22;31826;53.572;10.170;2023-01-20T15:00:45;3.50;99.90
46091;DHT22;31826;53.572;10.170;2023-01-20T15:03:21;3.50;99.90
46091;DHT22;31826;53.572;10.170;2023-01-20T15:05:59;3.40;99.90
46091;DHT22;31826;53.572;10.170;2023-01-20T15:21:47;3.30;99.90
46091;DHT22;31826;53.572;10.170;2023-01-20T15:24:22;3.30;99.90
46091;DHT22;31826;53.572;10.170;2023-01-20T15:26:52;3.20;99.90
46091;DHT22;31826;53.572;10.170;2023-01-20T15:29:32;3.30;99.90
46091;DHT22;31826;53.572;10.170;2023-01-20T15:32:01;3.20;99.90
46091;DHT22;31826;53.572;10.170;2023-01-20T15:34:28;3.30;99.90
46091;DHT22;31826;53.572;10.170;2023-01-20T15:36:54;3.20;99.90
46091;DHT22;31826;53.572;10.170;2023-01-20T15:39:22;3.20;99.90
46091;DHT22;31826;53.572;10.170;2023-01-20T15:41:49;3.20;99.90
46091;DHT22;31826;53.572;10.170;2023-01-20T15:44:22;3.20;99.90
46091;DHT22;31826;53.572;10.170;2023-01-20T15:46:48;3.20;99.90
46091;DHT22;31826;53.572;10.170;2023-01-20T15:49:14;3.30;99.90
46091;DHT22;31826;53.572;10.170;2023-01-20T15:51:40;3.10;99.90
46091;DHT22;31826;53.572;10.170;2023-01-20T15:54:07;3.10;99.90
46091;DHT22;31826;53.572;10.170;2023-01-20T15:56:34;3.10;99.90
46091;DHT22;31826;53.572;10.170;2023-01-20T15:59:07;3.10;99.90
46091;DHT22;31826;53.572;10.170;2023-01-20T16:01:34;3.10;99.90
46091;DHT22;31826;53.572;10.170;2023-01-20T16:04:00;3.10;99.90
46091;DHT22;31826;53.572;10.170;2023-01-20T16:06:32;3.10;99.90
46091;DHT22;31826;53.572;10.170;2023-01-20T16:09:07;3.00;99.90
46091;DHT22;31826;53.572;10.170;2023-01-20T16:11:37;3.10;99.90
46091;DHT22;31826;53.572;10.170;2023-01-20T16:14:06;3.00;99.90
46091;DHT22;31826;53.572;10.170;2023-01-20T16:16:32;3.00;99.90
46091;DHT22;31826;53.572;10.170;2023-01-20T16:18:58;3.00;99.90
46091;DHT22;31826;53.572;10.170;2023-01-20T16:21:23;3.00;99.90
46091;DHT22;31826;53.572;10.170;2023-01-20T16:23:49;2.90;99.90
46091;DHT22;31826;53.572;10.170;2023-01-20T16:26:29;2.90;99.90
46091;DHT22;31826;53.572;10.170;2023-01-20T16:28:57;2.90;99.90
46091;DHT22;31826;53.572;10.170;2023-01-20T16:31:24;2.80;99.90
46091;DHT22;31826;53.572;10.170;2023-01-20T16:33:53;2.80;99.90
46091;DHT22;31826;53.572;10.170;2023-01-20T16:36:21;2.80;99.90
46091;DHT22;31826;53.572;10.170;2023-01-20T16:38:48;2.70;99.90
46091;DHT22;31826;53.572;10.170;2023-01-20T16:41:32;2.70;99.90
46091;DHT22;31826;53.572;10.170;2023-01-20T16:43:57;2.70;99.90
46091;DHT22;31826;53.572;10.170;2023-01-20T16:46:25;2.70;99.90
46091;DHT22;31826;53.572;10.170;2023-01-20T16:48:51;2.70;99.90
46091;DHT22;31826;53.572;10.170;2023-01-20T16:51:22;2.70;99.90
46091;DHT22;31826;53.572;10.170;2023-01-20T16:53:51;2.70;99.90
46091;DHT22;31826;53.572;10.170;2023-01-20T16:56:22;2.60;99.90
46091;DHT22;31826;53.572;10.170;2023-01-20T16:58:49;2.60;99.90
46091;DHT22;31826;53.572;10.170;2023-01-20T17:01:16;2.70;99.90
46091;DHT22;31826;53.572;10.170;2023-01-20T17:03:47;2.70;99.90
46091;DHT22;31826;53.572;10.170;2023-01-20T17:06:14;2.70;99.90
46091;DHT22;31826;53.572;10.170;2023-01-20T17:08:44;2.70;99.90
46091;DHT22;31826;53.572;10.170;2023-01-20T17:11:19;2.60;99.90
46091;DHT22;31826;53.572;10.170;2023-01-20T17:13:45;2.50;99.90
46091;DHT22;31826;53.572;10.170;2023-01-20T17:16:11;2.50;99.90
46091;DHT22;31826;53.572;10.170;2023-01-20T17:18:36;2.50;99.90
46091;DHT22;31826;53.572;10.170;2023-01-20T17:21:06;2.50;99.90
46091;DHT22;31826;53.572;10.170;2023-01-20T17:23:32;2.50;99.90
46091;DHT22;31826;53.572;10.170;2023-01-20T17:26:04;2.50;99.90
46091;DHT22;31826;53.572;10.170;2023-01-20T17:28:30;2.50;99.90
46091;DHT22;31826;53.572;10.170;2023-01-20T17:31:01;2.40;99.90
46091;DHT22;31826;53.572;10.170;2023-01-20T17:33:27;2.40;99.90
46091;DHT22;31826;53.572;10.170;2023-01-20T17:36:00;2.40;99.90
46091;DHT22;31826;53.572;10.170;2023-01-20T17:38:31;2.50;99.90
46091;DHT22;31826;53.572;10.170;2023-01-20T17:41:03;2.40;99.90
46091;DHT22;31826;53.572;10.170;2023-01-20T17:43:42;2.40;99.90
46091;DHT22;31826;53.572;10.170;2023-01-20T17:46:15;2.40;99.90
46091;DHT22;31826;53.572;10.170;2023-01-20T17:48:42;2.40;99.90
46091;DHT22;31826;53.572;10.170;2023-01-20T17:53:38;2.40;99.90